Time;durP1;ratioP1;P1;durP2;ratioP2;P2;SDS_P1;SDS_P2;PMS_P1;PMS_P2;Temp;Humidity;BMP_temperature;BMP_pressure;BME280_temperature;BME280_humidity;BME280_pressure;Samples;Min_cycle;Max_cycle;Signal;HPM_P1;HPM_P2
2021/05/06 00:30:07;;;;;;;3.80;0.68;;;6.60;99.90;;;;;;4952835;28;20098;-74
2021/05/06 00:32:35;;;;;;;0.73;0.50;;;6.60;99.90;;;;;;4950838;28;20130;-74
2021/05/06 00:35:01;;;;;;;1.17;0.68;;;6.50;99.90;;;;;;4953634;28;20150;-73
2021/05/06 00:37:27;;;;;;;2.13;0.70;;;6.50;99.90;;;;;;4952312;29;20072;-74
2021/05/06 00:40:03;;;;;;;0.90;0.52;;;6.50;99.90;;;;;;4956909;28;20113;-74
2021/05/06 00:42:37;;;;;;;1.50;0.60;;;6.50;99.90;;;;;;4935525;29;20476;-74
2021/05/06 01:03:43;;;;;;;0.80;0.50;;;6.50;99.90;;;;;;4952750;28;20075;-74
2021/05/06 01:06:14;;;;;;;2.65;0.80;;;6.40;99.90;;;;;;4950747;28;20123;-74
2021/05/06 01:08:44;;;;;;;1.35;1.13;;;6.40;99.90;;;;;;4934456;28;20147;-74
2021/05/06 01:13:35;;;;;;;2.28;0.80;;;6.40;99.90;;;;;;4951714;28;20080;-74
2021/05/06 01:16:01;;;;;;;1.98;0.75;;;6.40;99.90;;;;;;4950525;28;20095;-73
2021/05/06 01:18:27;;;;;;;2.80;0.75;;;6.30;99.90;;;;;;4950524;28;20095;-74
2021/05/06 01:20:59;;;;;;;2.85;1.08;;;6.50;99.90;;;;;;4950488;28;20071;-74
2021/05/06 01:23:26;;;;;;;2.75;1.20;;;6.50;99.90;;;;;;4954969;28;20076;-74
2021/05/06 01:28:27;;;;;;;4.88;1.63;;;6.60;99.90;;;;;;4951946;28;20091;-74
2021/05/06 01:36:11;;;;;;;3.25;0.80;;;6.50;99.90;;;;;;4950966;28;20907;-74
2021/05/06 02:00:03;;;;;;;1.00;0.68;;;6.50;99.90;;;;;;4957057;28;20106;-75
2021/05/06 02:02:29;;;;;;;3.20;1.10;;;6.50;99.90;;;;;;4957770;28;20091;-74
2021/05/06 02:04:55;;;;;;;2.78;0.60;;;6.50;99.90;;;;;;4952125;28;20101;-74
2021/05/06 02:07:20;;;;;;;1.88;0.65;;;6.40;99.90;;;;;;4949803;28;20087;-74
2021/05/06 02:09:47;;;;;;;1.35;0.50;;;6.40;99.90;;;;;;4937083;28;20095;-74
2021/05/06 02:12:15;;;;;;;1.17;0.60;;;6.40;99.90;;;;;;4947097;28;20503;-74
2021/05/06 02:14:46;;;;;;;1.08;0.98;;;6.50;99.90;;;;;;4952113;28;20102;-73
2021/05/06 02:17:11;;;;;;;2.17;0.80;;;6.50;99.90;;;;;;4949548;28;20071;-74
2021/05/06 02:19:39;;;;;;;2.13;0.80;;;6.60;99.90;;;;;;4951075;28;20106;-74
2021/05/06 02:22:08;;;;;;;2.00;0.88;;;6.60;99.90;;;;;;4965181;28;20079;-74
2021/05/06 02:24:33;;;;;;;1.15;0.60;;;6.60;99.90;;;;;;4954897;28;20134;-75
2021/05/06 02:26:59;;;;;;;2.35;0.93;;;6.70;99.90;;;;;;4950633;28;20068;-74
2021/05/06 02:29:25;;;;;;;1.77;0.68;;;6.60;99.90;;;;;;4968802;28;20099;-74
2021/05/06 02:31:50;;;;;;;3.92;0.80;;;6.60;99.90;;;;;;4952174;28;20150;-74
2021/05/06 02:34:16;;;;;;;2.30;0.73;;;6.70;99.90;;;;;;4951239;28;20095;-74
2021/05/06 02:36:41;;;;;;;2.08;0.60;;;6.70;99.90;;;;;;4953400;28;20079;-74
2021/05/06 02:39:07;;;;;;;2.97;1.35;;;6.70;99.90;;;;;;4956261;28;20511;-74
2021/05/06 02:41:33;;;;;;;6.10;1.30;;;6.70;99.90;;;;;;4969737;28;20086;-74
2021/05/06 02:43:58;;;;;;;2.47;0.60;;;6.60;99.90;;;;;;4951777;28;20111;-74
2021/05/06 02:46:27;;;;;;;2.55;0.80;;;6.50;99.90;;;;;;4955292;28;20079;-74
2021/05/06 02:48:52;;;;;;;2.97;0.80;;;6.50;99.90;;;;;;4950946;28;20175;-74
2021/05/06 02:51:22;;;;;;;1.48;0.77;;;6.60;99.90;;;;;;4955445;28;20492;-74
2021/05/06 02:53:53;;;;;;;7.35;0.90;;;6.50;99.90;;;;;;4956471;28;20134;-74
2021/05/06 02:56:29;;;;;;;3.78;1.10;;;6.50;99.90;;;;;;4955304;28;20086;-74
2021/05/06 03:04:05;;;;;;;1.90;0.70;;;6.40;99.90;;;;;;4957177;28;20113;-74
2021/05/06 03:06:33;;;;;;;1.92;0.80;;;6.40;99.90;;;;;;4952906;28;20335;-74
2021/05/06 03:09:20;;;;;;;2.60;0.98;;;6.40;99.90;;;;;;4949797;28;20096;-74
2021/05/06 03:22:54;;;;;;;3.72;0.90;;;6.30;99.90;;;;;;4964820;28;20142;-74
2021/05/06 03:25:21;;;;;;;2.80;0.80;;;6.30;99.90;;;;;;4956866;28;20095;-74
2021/05/06 04:37:31;;;;;;;5.70;1.60;;;6.80;99.90;;;;;;4954799;28;20334;-74
2021/05/06 04:45:35;;;;;;;2.23;0.80;;;6.80;99.90;;;;;;4953596;28;20082;-74
2021/05/06 04:56:39;;;;;;;2.97;1.38;;;6.90;99.90;;;;;;4971635;28;20088;-74
2021/05/06 05:04:49;;;;;;;3.10;0.90;;;6.80;99.90;;;;;;4951685;28;20110;-74
2021/05/06 05:07:19;;;;;;;5.03;1.17;;;6.70;99.90;;;;;;4951976;28;20603;-74
2021/05/06 05:10:05;;;;;;;3.25;1.23;;;6.60;99.90;;;;;;4953889;28;20119;-74
2021/05/06 05:18:04;;;;;;;3.20;0.90;;;6.50;99.90;;;;;;4966035;28;20137;-74
2021/05/06 05:20:49;;;;;;;3.42;1.30;;;6.50;99.90;;;;;;4956943;28;20399;-73
2021/05/06 05:26:08;;;;;;;2.97;0.82;;;6.50;99.90;;;;;;4969440;28;20094;-74
2021/05/06 05:28:34;;;;;;;1.90;0.88;;;6.50;99.90;;;;;;4954361;28;20131;-74
2021/05/06 05:31:00;;;;;;;3.78;1.10;;;6.50;99.90;;;;;;4952189;28;20122;-74
2021/05/06 05:33:27;;;;;;;4.15;0.95;;;6.50;99.90;;;;;;4962155;28;20110;-73
2021/05/06 05:56:35;;;;;;;4.63;1.50;;;6.90;99.90;;;;;;4956353;28;20125;-75
2021/05/06 05:59:01;;;;;;;3.55;1.27;;;7.00;99.90;;;;;;4951943;28;20638;-76
2021/05/06 06:01:28;;;;;;;4.20;1.35;;;7.10;99.90;;;;;;4970502;28;20167;-75
2021/05/06 06:03:53;;;;;;;4.05;1.20;;;7.20;99.90;;;;;;4957720;28;20103;-75
2021/05/06 06:06:19;;;;;;;4.63;1.30;;;7.20;99.90;;;;;;4960027;28;20079;-75
2021/05/06 06:08:44;;;;;;;1.77;0.75;;;7.20;99.90;;;;;;4967547;28;20918;-76
2021/05/06 06:11:10;;;;;;;4.97;1.35;;;7.30;99.90;;;;;;4961312;28;20087;-75
2021/05/06 06:13:36;;;;;;;3.65;0.93;;;7.20;99.90;;;;;;4969421;28;20075;-76
2021/05/06 06:16:11;;;;;;;3.58;1.40;;;7.20;99.90;;;;;;4958664;28;20545;-75
2021/05/06 06:21:23;;;;;;;5.43;1.48;;;7.40;99.90;;;;;;4966147;28;20217;-76
2021/05/06 06:23:49;;;;;;;6.95;1.67;;;7.50;99.90;;;;;;4966584;28;20162;-76
2021/05/06 06:26:14;;;;;;;1.80;1.10;;;7.60;99.90;;;;;;4961932;28;20169;-76
2021/05/06 06:28:42;;;;;;;5.03;1.30;;;7.60;99.90;;;;;;4965445;28;20331;-76
2021/05/06 06:33:47;;;;;;;4.78;1.50;;;7.70;99.90;;;;;;4969895;28;20079;-76
2021/05/06 06:36:12;;;;;;;3.08;1.23;;;7.70;99.90;;;;;;4951767;28;20115;-75
2021/05/06 06:38:38;;;;;;;2.80;1.20;;;7.70;99.90;;;;;;4964446;28;20139;-75
2021/05/06 06:41:08;;;;;;;5.00;1.48;;;7.90;99.90;;;;;;4969097;28;20067;-76
2021/05/06 06:43:34;;;;;;;2.40;1.13;;;7.90;99.90;;;;;;4957696;28;20111;-76
2021/05/06 06:46:01;;;;;;;2.88;0.98;;;8.00;99.90;;;;;;4937151;28;20104;-75
2021/05/06 06:48:26;;;;;;;4.13;1.15;;;8.00;99.90;;;;;;4958536;28;20087;-75
2021/05/06 06:50:52;;;;;;;2.70;1.10;;;8.10;99.90;;;;;;4956770;28;20079;-75
2021/05/06 06:53:17;;;;;;;4.47;1.65;;;8.10;99.90;;;;;;4969718;28;20459;-76
2021/05/06 06:55:44;;;;;;;5.60;1.33;;;8.10;99.90;;;;;;4963289;28;20103;-76
2021/05/06 06:58:13;;;;;;;4.25;1.60;;;8.20;99.90;;;;;;4973635;28;20088;-75
2021/05/06 07:00:45;;;;;;;1.85;0.98;;;8.30;99.90;;;;;;4955856;28;20083;-75
2021/05/06 07:03:11;;;;;;;6.18;1.42;;;8.40;99.90;;;;;;4959746;28;20072;-76
2021/05/06 07:05:37;;;;;;;6.65;1.10;;;8.40;99.90;;;;;;4952825;28;20079;-75
2021/05/06 07:08:24;;;;;;;7.47;1.58;;;8.40;99.90;;;;;;4959856;28;20188;-76
2021/05/06 07:10:52;;;;;;;6.18;1.35;;;8.60;99.90;;;;;;4957685;28;20523;-75
2021/05/06 07:13:18;;;;;;;3.72;1.10;;;8.60;99.90;;;;;;4952496;28;20720;-76
2021/05/06 07:16:00;;;;;;;3.33;1.40;;;8.70;99.90;;;;;;4950392;28;20094;-77
2021/05/06 07:18:26;;;;;;;3.15;1.08;;;8.70;99.90;;;;;;4952160;28;20095;-76
2021/05/06 07:20:52;;;;;;;5.85;1.70;;;8.70;99.90;;;;;;4965224;28;20060;-76
2021/05/06 07:23:20;;;;;;;2.80;1.10;;;8.70;99.90;;;;;;4941778;28;20075;-76
2021/05/06 07:25:51;;;;;;;2.83;0.93;;;8.80;99.90;;;;;;4964172;28;20087;-76
2021/05/06 07:28:20;;;;;;;2.42;1.10;;;8.90;99.90;;;;;;4965002;28;20109;-77
2021/05/06 07:30:47;;;;;;;2.50;1.63;;;8.90;99.90;;;;;;4951794;28;20086;-76
2021/05/06 07:33:14;;;;;;;4.68;0.80;;;9.00;99.90;;;;;;4952421;28;20170;-76
2021/05/06 07:35:40;;;;;;;7.32;1.85;;;9.00;99.90;;;;;;4969602;28;20114;-76
2021/05/06 07:38:06;;;;;;;5.97;1.02;;;9.00;99.90;;;;;;4969265;28;20123;-75
2021/05/06 07:40:32;;;;;;;4.35;1.10;;;9.10;99.90;;;;;;4969657;28;20075;-76
2021/05/06 07:42:58;;;;;;;4.25;1.40;;;9.20;99.90;;;;;;4970306;28;20504;-76
2021/05/06 07:45:23;;;;;;;3.95;1.10;;;9.50;99.90;;;;;;4952726;28;20587;-77
2021/05/06 07:47:49;;;;;;;4.43;1.45;;;9.60;99.90;;;;;;4952366;28;20579;-76
2021/05/06 07:50:16;;;;;;;5.82;1.30;;;9.70;99.90;;;;;;4951220;28;20075;-76
2021/05/06 07:52:43;;;;;;;2.97;1.00;;;9.80;99.90;;;;;;4953596;28;20767;-76
2021/05/06 07:55:10;;;;;;;4.45;2.17;;;9.90;99.90;;;;;;4963423;28;20102;-76
2021/05/06 07:57:36;;;;;;;5.07;1.27;;;10.00;99.90;;;;;;4965404;28;20122;-77
2021/05/06 08:00:12;;;;;;;4.15;1.35;;;10.00;99.90;;;;;;4966795;28;20088;-76
2021/05/06 08:02:39;;;;;;;7.05;1.60;;;9.90;99.90;;;;;;4960887;28;20106;-76
2021/05/06 08:05:06;;;;;;;5.60;1.50;;;10.00;99.90;;;;;;4953125;28;20090;-76
2021/05/06 08:07:31;;;;;;;4.03;1.10;;;10.00;99.90;;;;;;4970654;28;20520;-77
2021/05/06 08:09:57;;;;;;;5.72;1.30;;;10.20;99.90;;;;;;4971236;28;20110;-78
2021/05/06 08:12:23;;;;;;;4.90;1.10;;;10.30;99.90;;;;;;4962453;28;20106;-76
2021/05/06 08:14:49;;;;;;;4.32;1.30;;;10.40;99.90;;;;;;4970670;28;20538;-77
2021/05/06 08:17:15;;;;;;;6.93;1.65;;;10.60;99.90;;;;;;4960538;28;20163;-76
2021/05/06 08:19:41;;;;;;;4.90;1.30;;;10.70;99.90;;;;;;4937117;28;20105;-77
2021/05/06 08:22:08;;;;;;;4.80;1.83;;;10.90;99.90;;;;;;4958273;28;20114;-76
2021/05/06 08:24:34;;;;;;;2.53;1.08;;;11.00;99.90;;;;;;4964609;28;20075;-76
2021/05/06 08:26:59;;;;;;;2.92;1.05;;;11.00;99.20;;;;;;4970032;28;20071;-77
2021/05/06 08:29:25;;;;;;;4.65;1.25;;;11.00;98.20;;;;;;4962705;28;20560;-76
2021/05/06 08:31:51;;;;;;;2.75;1.00;;;10.80;98.70;;;;;;4958092;28;20095;-76
2021/05/06 08:34:16;;;;;;;4.97;1.63;;;10.70;98.70;;;;;;4962175;28;20114;-76
2021/05/06 08:36:42;;;;;;;5.53;1.48;;;10.70;98.70;;;;;;4950198;28;20099;-76
2021/05/06 08:39:07;;;;;;;4.95;1.30;;;10.90;99.80;;;;;;4960680;28;20110;-76
2021/05/06 08:41:33;;;;;;;2.08;1.10;;;11.10;99.00;;;;;;4969865;28;20071;-76
2021/05/06 08:44:02;;;;;;;7.28;1.10;;;11.30;97.30;;;;;;4966607;28;20079;-76
2021/05/06 08:46:33;;;;;;;6.82;1.35;;;11.50;99.90;;;;;;4950831;28;20087;-76
2021/05/06 08:49:05;;;;;;;3.67;0.95;;;11.50;98.00;;;;;;4967077;28;20597;-76
2021/05/06 08:51:30;;;;;;;3.80;1.65;;;11.20;97.80;;;;;;4969525;28;20597;-77
2021/05/06 08:53:57;;;;;;;3.25;0.90;;;11.10;98.10;;;;;;4966428;28;20076;-76
2021/05/06 08:56:22;;;;;;;2.85;0.98;;;11.10;98.90;;;;;;4965871;28;20437;-76
2021/05/06 08:58:48;;;;;;;2.78;1.00;;;11.10;98.00;;;;;;4965296;28;20094;-76
2021/05/06 09:01:15;;;;;;;6.00;1.60;;;10.90;97.80;;;;;;4964485;28;20080;-74
2021/05/06 09:03:40;;;;;;;2.75;0.75;;;11.10;99.20;;;;;;4950261;28;20083;-74
2021/05/06 09:06:26;;;;;;;3.40;1.20;;;11.20;98.70;;;;;;4960609;28;20548;-76
2021/05/06 09:09:03;;;;;;;7.43;1.20;;;11.20;98.30;;;;;;4960806;28;20115;-75
2021/05/06 09:11:34;;;;;;;4.53;1.80;;;11.20;99.00;;;;;;4971036;28;20079;-77
2021/05/06 09:14:07;;;;;;;4.85;1.08;;;11.20;98.40;;;;;;4972239;28;20106;-75
2021/05/06 09:16:39;;;;;;;4.68;1.05;;;11.00;97.70;;;;;;4967789;28;20646;-77
2021/05/06 09:19:06;;;;;;;3.15;1.13;;;11.00;97.70;;;;;;4962607;28;20454;-75
2021/05/06 09:21:34;;;;;;;3.38;0.90;;;11.10;97.90;;;;;;4972979;28;20555;-75
2021/05/06 09:24:10;;;;;;;3.60;1.45;;;11.10;98.30;;;;;;4970718;28;20428;-76
2021/05/06 09:26:38;;;;;;;3.13;1.20;;;11.10;98.00;;;;;;4963558;28;20436;-78
2021/05/06 09:29:06;;;;;;;1.48;0.85;;;11.10;98.70;;;;;;4962878;28;20095;-76
2021/05/06 09:31:49;;;;;;;6.05;1.27;;;11.10;98.60;;;;;;4960384;28;20460;-76
2021/05/06 09:34:15;;;;;;;3.20;0.90;;;11.20;99.60;;;;;;4977118;28;20079;-76
2021/05/06 09:36:43;;;;;;;3.90;1.13;;;11.30;98.80;;;;;;4957375;28;20114;-77
2021/05/06 09:39:10;;;;;;;2.58;1.15;;;11.40;97.40;;;;;;4954275;28;20095;-76
2021/05/06 09:41:36;;;;;;;3.03;1.08;;;11.20;98.40;;;;;;4964608;28;20094;-76
2021/05/06 09:44:08;;;;;;;4.07;1.05;;;11.30;97.90;;;;;;4953082;29;20076;-76
2021/05/06 09:46:42;;;;;;;2.95;1.13;;;11.30;97.60;;;;;;4951472;29;20139;-76
2021/05/06 09:49:12;;;;;;;4.50;1.15;;;11.40;98.20;;;;;;4962101;28;20086;-76
2021/05/06 09:51:55;;;;;;;3.67;1.17;;;11.50;99.40;;;;;;4948232;28;20102;-76
2021/05/06 09:54:24;;;;;;;2.80;0.80;;;11.50;97.80;;;;;;4963019;28;20072;-76
2021/05/06 09:56:56;;;;;;;4.68;1.27;;;11.60;96.00;;;;;;4960665;28;20145;-75
2021/05/06 09:59:28;;;;;;;3.63;1.60;;;11.70;98.20;;;;;;4971253;28;20087;-76
2021/05/06 10:02:05;;;;;;;4.75;1.10;;;11.70;96.50;;;;;;4968831;28;20524;-76
2021/05/06 10:04:31;;;;;;;2.90;1.10;;;11.80;97.20;;;;;;4968518;28;20086;-76
2021/05/06 10:07:15;;;;;;;5.82;1.10;;;11.80;97.30;;;;;;4962931;28;20076;-76
2021/05/06 10:10:00;;;;;;;4.82;1.30;;;11.80;98.70;;;;;;4964792;28;20094;-76
2021/05/06 10:12:37;;;;;;;3.85;1.88;;;11.80;97.20;;;;;;4966301;28;20157;-75
2021/05/06 10:15:08;;;;;;;5.63;1.30;;;11.80;98.20;;;;;;4951618;29;20083;-76
2021/05/06 10:17:36;;;;;;;5.85;1.85;;;11.70;97.60;;;;;;4953184;28;20078;-75
2021/05/06 10:20:03;;;;;;;4.53;1.30;;;11.70;98.80;;;;;;4961374;28;20568;-76
2021/05/06 10:22:29;;;;;;;3.22;1.05;;;11.70;98.00;;;;;;4954893;28;20138;-74
2021/05/06 10:24:57;;;;;;;4.10;1.05;;;11.70;97.50;;;;;;4952667;28;20082;-74
2021/05/06 10:27:24;;;;;;;3.05;2.05;;;11.80;96.10;;;;;;4971005;28;20090;-75
2021/05/06 10:29:57;;;;;;;3.25;1.13;;;11.80;96.70;;;;;;4958736;28;20095;-75
2021/05/06 10:32:30;;;;;;;5.32;1.20;;;11.80;96.10;;;;;;4955753;28;20092;-75
2021/05/06 10:34:59;;;;;;;2.67;1.33;;;11.90;96.80;;;;;;4950820;28;20501;-74
2021/05/06 10:37:27;;;;;;;4.40;1.73;;;11.90;97.10;;;;;;4952580;28;20079;-75
2021/05/06 10:39:52;;;;;;;5.63;1.15;;;11.80;97.20;;;;;;4950262;28;20151;-75
2021/05/06 10:42:27;;;;;;;5.70;1.55;;;11.80;97.10;;;;;;4961831;28;20103;-75
2021/05/06 10:44:53;;;;;;;3.55;1.25;;;11.70;96.60;;;;;;4957680;28;20086;-81
2021/05/06 10:47:42;;;;;;;5.60;1.90;;;11.70;96.90;;;;;;4950266;28;20539;-81
2021/05/06 10:50:14;;;;;;;3.03;1.00;;;11.70;97.40;;;;;;4955073;28;20099;-82
2021/05/06 10:52:46;;;;;;;4.00;0.90;;;11.70;98.80;;;;;;4955989;28;20082;-81
2021/05/06 10:55:15;;;;;;;1.33;0.70;;;11.80;98.60;;;;;;4948524;29;20812;-82
2021/05/06 10:57:41;;;;;;;5.90;1.42;;;11.90;97.60;;;;;;4953615;28;20482;-79
2021/05/06 11:00:23;;;;;;;2.70;1.42;;;11.90;97.80;;;;;;4955864;28;20189;-77
2021/05/06 11:02:51;;;;;;;6.68;1.15;;;11.90;98.80;;;;;;4962742;28;20075;-76
2021/05/06 11:05:25;;;;;;;5.15;1.20;;;11.80;99.20;;;;;;4957723;28;20079;-75
2021/05/06 11:08:05;;;;;;;4.10;1.10;;;11.70;98.80;;;;;;4963192;28;20118;-75
2021/05/06 11:10:51;;;;;;;2.47;0.70;;;11.70;99.90;;;;;;4951724;28;20087;-75
2021/05/06 11:13:18;;;;;;;3.58;1.10;;;11.80;99.90;;;;;;4938813;28;20087;-75
2021/05/06 11:15:45;;;;;;;2.65;1.10;;;11.70;99.90;;;;;;4949085;28;20467;-75
2021/05/06 11:18:12;;;;;;;3.55;1.15;;;11.70;99.90;;;;;;4959360;28;20134;-75
2021/05/06 11:20:49;;;;;;;3.63;1.08;;;11.60;99.90;;;;;;4957429;28;20090;-75
2021/05/06 11:23:20;;;;;;;3.45;1.50;;;11.50;99.90;;;;;;4966252;28;20067;-76
2021/05/06 11:25:52;;;;;;;6.30;1.45;;;11.50;99.90;;;;;;4972096;28;20134;-80
2021/05/06 11:28:20;;;;;;;3.70;1.45;;;11.50;99.90;;;;;;4974194;28;20153;-79
2021/05/06 11:30:48;;;;;;;2.10;0.90;;;11.60;99.90;;;;;;4971187;28;20165;-81
2021/05/06 11:33:17;;;;;;;4.75;1.85;;;11.60;99.90;;;;;;4974745;28;20157;-81
2021/05/06 11:36:10;;;;;;;2.70;1.10;;;11.30;99.90;;;;;;4959898;28;20169;-82
2021/05/06 11:38:39;;;;;;;2.80;1.25;;;11.00;99.90;;;;;;4968142;28;20099;-79
2021/05/06 11:41:13;;;;;;;2.05;1.33;;;10.90;99.90;;;;;;4974989;28;20083;-80
2021/05/06 11:43:42;;;;;;;3.15;1.00;;;11.00;99.90;;;;;;4986797;28;20731;-83
2021/05/06 11:46:16;;;;;;;1.42;0.85;;;11.00;99.90;;;;;;4976795;28;20086;-85
2021/05/06 11:48:46;;;;;;;1.50;0.70;;;10.90;99.90;;;;;;4973999;28;20089;-74
2021/05/06 11:51:27;;;;;;;3.83;0.90;;;10.90;99.90;;;;;;4974467;28;20089;-77
2021/05/06 11:54:15;;;;;;;5.78;1.02;;;11.00;99.90;;;;;;4966927;28;20095;-76
2021/05/06 11:56:48;;;;;;;2.60;1.00;;;10.90;99.90;;;;;;4962959;28;20098;-78
2021/05/06 11:59:16;;;;;;;3.10;1.02;;;10.70;99.90;;;;;;4958989;28;20091;-81
2021/05/06 12:01:41;;;;;;;2.70;0.98;;;10.70;99.90;;;;;;4948888;28;20079;-78
2021/05/06 12:04:20;;;;;;;1.63;0.80;;;10.60;99.90;;;;;;4961205;28;20082;-80
2021/05/06 12:06:45;;;;;;;3.17;1.13;;;10.60;99.90;;;;;;4966288;28;21000;-77
2021/05/06 12:09:20;;;;;;;1.92;1.23;;;10.50;99.90;;;;;;4975152;28;20127;-79
2021/05/06 12:11:45;;;;;;;3.65;0.95;;;10.60;99.90;;;;;;4968163;28;20082;-78
2021/05/06 12:14:11;;;;;;;5.05;1.20;;;10.80;99.90;;;;;;4973020;28;20431;-78
2021/05/06 12:16:37;;;;;;;2.45;1.05;;;10.60;99.90;;;;;;4954817;28;20953;-74
2021/05/06 12:19:10;;;;;;;5.63;0.93;;;10.50;99.90;;;;;;4969254;28;20106;-75
2021/05/06 12:21:38;;;;;;;5.05;0.95;;;10.40;99.90;;;;;;4964814;28;20099;-76
2021/05/06 12:24:05;;;;;;;1.95;1.05;;;10.40;99.90;;;;;;4964256;28;20558;-74
2021/05/06 12:26:32;;;;;;;2.75;1.15;;;10.50;99.90;;;;;;4958035;28;20641;-75
2021/05/06 12:28:58;;;;;;;4.10;0.93;;;10.70;99.90;;;;;;4954367;28;20170;-77
2021/05/06 12:31:24;;;;;;;3.05;0.93;;;10.50;99.90;;;;;;4939108;29;20171;-78
2021/05/06 12:33:50;;;;;;;2.53;0.93;;;10.40;99.90;;;;;;4956305;28;20072;-77
2021/05/06 12:36:17;;;;;;;1.70;1.40;;;10.50;99.90;;;;;;4958318;28;20106;-76
2021/05/06 12:38:44;;;;;;;3.90;1.08;;;10.20;99.90;;;;;;4957135;28;20475;-75
2021/05/06 12:41:12;;;;;;;11.27;2.22;;;10.30;99.90;;;;;;4950719;28;20396;-77
2021/05/06 12:43:51;;;;;;;2.50;0.82;;;10.40;99.90;;;;;;4956361;28;20194;-78
2021/05/06 12:46:24;;;;;;;7.97;1.73;;;10.30;99.90;;;;;;4960152;28;20117;-78
2021/05/06 12:48:59;;;;;;;6.38;1.70;;;10.30;99.90;;;;;;4965435;28;20106;-76
2021/05/06 12:51:27;;;;;;;4.03;1.45;;;10.30;99.90;;;;;;4955548;28;20089;-75
2021/05/06 12:53:58;;;;;;;3.97;1.20;;;10.20;99.90;;;;;;4966887;28;20075;-77
2021/05/06 12:56:26;;;;;;;1.48;0.70;;;10.20;99.90;;;;;;4951983;28;20154;-78
2021/05/06 12:58:52;;;;;;;3.25;1.15;;;10.40;99.90;;;;;;4968258;28;20638;-75
2021/05/06 13:01:28;;;;;;;2.35;0.75;;;10.40;99.90;;;;;;4953315;28;20564;-75
2021/05/06 13:04:01;;;;;;;3.22;1.38;;;10.50;99.90;;;;;;4967364;28;20527;-76
2021/05/06 13:06:32;;;;;;;2.95;1.08;;;10.40;99.90;;;;;;4961681;28;20162;-76
2021/05/06 13:08:59;;;;;;;2.53;0.80;;;10.60;99.90;;;;;;4966275;28;20087;-75
2021/05/06 13:11:25;;;;;;;4.00;2.50;;;10.50;99.90;;;;;;4967639;28;20716;-76
2021/05/06 13:13:53;;;;;;;4.07;1.90;;;10.40;99.90;;;;;;4965990;28;20091;-76
2021/05/06 13:16:49;;;;;;;3.72;1.50;;;10.20;99.90;;;;;;4959509;28;20099;-75
2021/05/06 13:19:17;;;;;;;4.57;2.70;;;10.20;99.90;;;;;;4971406;28;20091;-76
2021/05/06 13:21:56;;;;;;;3.05;1.58;;;10.20;99.90;;;;;;4955431;28;20170;-75
2021/05/06 13:24:22;;;;;;;2.40;1.10;;;10.30;99.90;;;;;;4954900;28;20072;-75
2021/05/06 13:26:48;;;;;;;2.13;1.10;;;10.20;99.90;;;;;;4968144;28;20459;-76
2021/05/06 13:29:16;;;;;;;1.45;0.90;;;10.30;99.90;;;;;;4970121;28;20087;-75
2021/05/06 13:31:49;;;;;;;10.93;1.42;;;10.20;99.90;;;;;;4954319;28;20088;-75
2021/05/06 13:34:17;;;;;;;3.22;1.85;;;10.20;99.90;;;;;;4950660;28;20235;-75
2021/05/06 13:37:03;;;;;;;2.53;1.23;;;10.20;99.90;;;;;;4970732;28;20166;-76
2021/05/06 13:39:29;;;;;;;2.05;1.42;;;10.30;99.90;;;;;;4958550;28;20099;-78
2021/05/06 13:41:57;;;;;;;3.03;1.15;;;10.10;99.90;;;;;;4970854;28;20155;-74
2021/05/06 13:44:24;;;;;;;3.72;1.45;;;10.10;99.90;;;;;;4966750;28;20086;-76
2021/05/06 13:46:53;;;;;;;2.03;1.35;;;10.10;99.90;;;;;;4964471;28;20071;-75
2021/05/06 13:49:23;;;;;;;2.20;1.00;;;10.30;99.90;;;;;;4946040;28;20114;-74
2021/05/06 13:51:50;;;;;;;3.80;1.10;;;10.30;99.90;;;;;;4961071;28;20158;-75
2021/05/06 13:54:17;;;;;;;2.67;0.95;;;10.30;99.90;;;;;;4955639;28;20533;-74
2021/05/06 13:56:43;;;;;;;1.83;0.80;;;10.40;99.90;;;;;;4961635;28;20487;-74
2021/05/06 13:59:09;;;;;;;3.58;1.10;;;10.50;99.90;;;;;;4955512;28;20104;-79
2021/05/06 14:01:34;;;;;;;1.65;0.90;;;10.30;99.90;;;;;;4953236;28;20072;-78
2021/05/06 14:04:00;;;;;;;2.53;1.23;;;10.10;99.90;;;;;;4968545;28;20619;-75
2021/05/06 14:06:26;;;;;;;4.22;1.33;;;10.00;99.90;;;;;;4957573;28;20091;-75
2021/05/06 14:08:52;;;;;;;1.75;0.73;;;10.00;99.90;;;;;;4950075;28;20099;-75
2021/05/06 14:11:18;;;;;;;3.42;1.25;;;10.00;99.90;;;;;;4965672;28;20090;-75
2021/05/06 14:13:44;;;;;;;1.33;0.80;;;10.00;99.90;;;;;;4970869;28;20143;-75
2021/05/06 14:16:09;;;;;;;2.95;1.00;;;10.10;99.90;;;;;;4951458;28;20095;-77
2021/05/06 14:18:35;;;;;;;1.90;1.23;;;10.20;99.90;;;;;;4973305;28;20090;-80
2021/05/06 14:21:04;;;;;;;3.17;0.98;;;10.00;99.90;;;;;;4977181;28;20342;-80
2021/05/06 14:23:44;;;;;;;4.43;1.08;;;10.10;99.90;;;;;;4975666;28;20528;-80
2021/05/06 14:26:10;;;;;;;3.40;0.95;;;10.00;99.90;;;;;;4973894;28;20275;-79
2021/05/06 14:28:36;;;;;;;2.13;1.20;;;10.00;99.90;;;;;;4956501;28;21134;-78
2021/05/06 14:31:02;;;;;;;1.75;1.02;;;9.90;99.90;;;;;;4964403;28;20123;-79
2021/05/06 14:33:28;;;;;;;4.40;1.10;;;9.90;99.90;;;;;;4969010;28;20118;-78
2021/05/06 14:35:53;;;;;;;2.10;0.93;;;9.90;99.90;;;;;;4943467;28;20102;-77
2021/05/06 14:38:19;;;;;;;1.92;1.13;;;9.90;99.90;;;;;;4971555;28;20503;-79
2021/05/06 14:40:45;;;;;;;1.92;0.80;;;10.00;99.90;;;;;;4955904;28;20080;-80
2021/05/06 14:43:11;;;;;;;4.53;2.05;;;9.80;99.90;;;;;;4944613;28;20083;-83
2021/05/06 14:45:37;;;;;;;2.95;1.52;;;9.80;99.90;;;;;;4959178;28;20094;-82
2021/05/06 14:48:04;;;;;;;1.80;1.13;;;9.70;99.90;;;;;;4955480;28;20103;-79
2021/05/06 14:50:31;;;;;;;4.13;1.77;;;9.70;99.90;;;;;;4967025;28;20536;-78
2021/05/06 14:52:57;;;;;;;2.45;1.30;;;9.70;99.90;;;;;;4959405;28;20729;-77
2021/05/06 14:55:23;;;;;;;1.98;1.30;;;9.60;99.90;;;;;;4957636;28;20096;-78
2021/05/06 14:57:50;;;;;;;2.50;1.08;;;9.60;99.90;;;;;;4971371;28;20071;-78
2021/05/06 15:00:17;;;;;;;2.25;1.10;;;9.50;99.90;;;;;;4953803;28;20141;-75
2021/05/06 15:02:43;;;;;;;1.80;1.23;;;9.50;99.90;;;;;;4965124;28;20098;-80
2021/05/06 15:05:09;;;;;;;3.25;1.20;;;9.50;99.90;;;;;;4964523;28;20079;-77
2021/05/06 15:07:35;;;;;;;1.10;0.88;;;9.60;99.90;;;;;;4971759;28;20083;-81
2021/05/06 15:10:00;;;;;;;5.82;2.90;;;9.60;99.90;;;;;;4973316;28;20094;-82
2021/05/06 15:12:26;;;;;;;42.40;22.73;;;9.70;99.90;;;;;;4956178;28;20098;-77
2021/05/06 15:14:52;;;;;;;3.40;1.38;;;9.70;99.90;;;;;;4958872;28;20123;-76
2021/05/06 15:17:18;;;;;;;2.97;1.38;;;9.60;99.90;;;;;;4951910;28;20099;-75
2021/05/06 15:19:44;;;;;;;2.00;1.10;;;9.60;99.90;;;;;;4969129;28;20178;-77
2021/05/06 15:22:09;;;;;;;4.03;1.52;;;9.60;99.90;;;;;;4956270;28;20523;-77
2021/05/06 15:24:35;;;;;;;2.25;1.40;;;9.60;99.90;;;;;;4965817;28;20084;-72
2021/05/06 15:27:01;;;;;;;4.00;1.45;;;9.60;99.90;;;;;;4937496;29;20167;-73
2021/05/06 15:29:26;;;;;;;3.15;1.60;;;9.70;99.90;;;;;;4966114;28;20178;-74
2021/05/06 15:31:53;;;;;;;3.83;1.20;;;9.60;99.90;;;;;;4968359;28;20094;-75
2021/05/06 15:34:20;;;;;;;1.40;1.02;;;9.50;99.90;;;;;;4975997;28;20132;-77
2021/05/06 15:36:45;;;;;;;3.08;1.25;;;9.50;99.90;;;;;;4963291;28;20165;-78
2021/05/06 15:39:11;;;;;;;3.17;1.67;;;9.60;99.90;;;;;;4966974;28;20603;-77
2021/05/06 15:41:38;;;;;;;4.03;1.50;;;9.60;99.90;;;;;;4956385;28;20088;-77
2021/05/06 15:44:04;;;;;;;2.83;1.55;;;9.60;99.90;;;;;;4961843;28;20072;-77
2021/05/06 15:46:33;;;;;;;2.97;1.42;;;9.60;99.90;;;;;;4970116;28;20082;-79
2021/05/06 15:49:03;;;;;;;2.47;1.65;;;9.60;99.90;;;;;;4968076;28;20091;-80
2021/05/06 15:51:30;;;;;;;2.75;1.67;;;9.50;99.90;;;;;;4965803;28;20095;-80
2021/05/06 15:53:56;;;;;;;2.42;1.00;;;9.50;99.90;;;;;;4944843;29;20084;-75
2021/05/06 15:56:22;;;;;;;1.58;1.23;;;9.60;99.90;;;;;;4962439;28;20181;-77
2021/05/06 15:58:51;;;;;;;2.53;1.40;;;9.60;99.90;;;;;;4954785;28;20230;-73
2021/05/06 16:01:18;;;;;;;2.92;2.35;;;9.60;99.90;;;;;;4955200;28;20072;-73
2021/05/06 16:03:50;;;;;;;4.80;2.40;;;9.60;99.90;;;;;;4964030;28;20083;-80
2021/05/06 16:06:16;;;;;;;6.70;3.55;;;9.60;99.90;;;;;;4947240;28;20098;-74
2021/05/06 16:08:42;;;;;;;7.03;4.28;;;9.50;99.90;;;;;;4953634;28;20142;-72
2021/05/06 16:11:08;;;;;;;6.32;2.88;;;9.40;99.90;;;;;;4953510;29;20076;-74
2021/05/06 16:13:34;;;;;;;11.45;5.90;;;9.50;99.90;;;;;;4956090;29;20575;-74
2021/05/06 16:15:59;;;;;;;7.43;3.78;;;9.50;99.90;;;;;;4964986;28;20103;-79
2021/05/06 16:18:25;;;;;;;11.60;8.00;;;9.50;99.90;;;;;;4956944;28;20177;-72
2021/05/06 16:20:51;;;;;;;7.82;4.28;;;9.40;99.90;;;;;;4976028;28;20498;-81
2021/05/06 16:23:17;;;;;;;6.63;3.55;;;9.50;99.90;;;;;;4961815;28;20071;-78
2021/05/06 16:25:43;;;;;;;10.38;7.25;;;9.40;99.90;;;;;;4951081;28;20079;-81
2021/05/06 16:28:10;;;;;;;5.50;3.40;;;9.50;99.90;;;;;;4969398;28;20083;-76
2021/05/06 16:30:36;;;;;;;9.73;5.60;;;9.40;99.90;;;;;;4960611;28;20146;-74
2021/05/06 16:33:05;;;;;;;5.70;4.05;;;9.50;99.90;;;;;;4962555;28;20091;-73
2021/05/06 16:35:34;;;;;;;4.70;3.58;;;9.30;99.90;;;;;;4937167;28;20091;-74
2021/05/06 16:38:05;;;;;;;6.35;5.35;;;9.40;99.90;;;;;;4969699;28;20080;-73
2021/05/06 16:45:49;;;;;;;8.60;5.88;;;9.40;99.90;;;;;;4972880;28;20861;-81